createdAt,value
2023-05-19T00:01:13.692Z,96139.47
2023-05-19T00:03:52.744Z,96148.97
2023-05-19T00:06:26.049Z,96136.13
2023-05-19T00:08:58.855Z,96141.97
2023-05-19T00:11:27.859Z,96136.91
2023-05-19T00:13:56.942Z,96139.25
2023-05-19T00:16:26.708Z,96137.50
2023-05-19T00:18:55.046Z,96135.13
2023-05-19T00:21:24.572Z,96135.91
2023-05-19T00:23:52.739Z,96127.75
2023-05-19T00:26:21.979Z,96127.94
2023-05-19T00:28:50.807Z,96132.63
2023-05-19T00:31:18.922Z,96137.91
2023-05-19T00:33:47.203Z,96131.56
2023-05-19T00:36:15.254Z,96136.84
2023-05-19T00:38:44.727Z,96133.13
2023-05-19T00:41:13.047Z,96129.44
2023-05-19T00:43:41.295Z,96126.31
2023-05-19T00:46:11.125Z,96132.63
2023-05-19T00:48:39.301Z,96129.50
2023-05-19T00:51:07.707Z,96131.84
2023-05-19T00:53:36.743Z,96128.44
2023-05-19T00:56:06.482Z,96121.56
2023-05-19T00:58:35.010Z,96132.53
2023-05-19T01:01:04.696Z,96127.47
2023-05-19T01:03:35.162Z,96127.47
2023-05-19T01:06:05.304Z,96124.13
2023-05-19T01:08:34.009Z,96127.81
2023-05-19T01:11:03.389Z,96127.81
2023-05-19T01:13:33.297Z,96124.69
2023-05-19T01:16:06.976Z,96127.59
2023-05-19T01:18:48.633Z,96128.72
2023-05-19T01:21:49.995Z,96126.47
2023-05-19T01:24:46.969Z,96128.66
2023-05-19T01:27:43.333Z,96120.81
2023-05-19T01:30:35.322Z,96127.34
2023-05-19T01:33:07.965Z,96116.56
2023-05-19T01:35:37.966Z,96121.81
2023-05-19T01:38:08.883Z,96119.69
2023-05-19T01:40:38.834Z,96120.19
2023-05-19T01:43:10.666Z,96120.13
2023-05-19T01:45:41.405Z,96118.78
2023-05-19T01:48:11.113Z,96116.16
2023-05-19T01:50:39.504Z,96107.50
2023-05-19T01:53:07.734Z,96122.47
2023-05-19T01:55:37.169Z,96115.84
2023-05-19T01:58:16.851Z,96117.41
2023-05-19T02:00:54.534Z,96111.38
2023-05-19T02:03:39.693Z,96118.47
2023-05-19T02:06:20.518Z,96118.97
2023-05-19T02:08:55.725Z,96117.63
2023-05-19T02:11:31.670Z,96111.38
2023-05-19T02:14:04.097Z,96113.88
2023-05-19T02:16:35.826Z,96107.59
2023-05-19T02:19:04.213Z,96113.16
2023-05-19T02:21:32.313Z,96107.59
2023-05-19T02:24:00.438Z,96102.06
2023-05-19T02:26:28.513Z,96094.72
2023-05-19T02:28:56.520Z,96090.25
2023-05-19T02:31:24.696Z,96090.25
2023-05-19T02:33:54.245Z,96091.03
2023-05-19T02:36:22.462Z,96092.88
2023-05-19T02:38:51.343Z,96092.38
2023-05-19T02:41:19.438Z,96086.63
2023-05-19T02:43:47.540Z,96085.13
2023-05-19T02:46:15.671Z,96089.59
2023-05-19T02:48:43.745Z,96090.38
2023-05-19T02:51:13.191Z,96086.69
2023-05-19T02:53:41.206Z,96087.75
2023-05-19T02:56:09.280Z,96089.59
2023-05-19T02:58:37.378Z,96087.81
2023-05-19T03:01:05.539Z,96082.03
2023-05-19T03:03:33.790Z,96093.63
2023-05-19T03:06:02.615Z,96084.44
2023-05-19T03:08:32.045Z,96091.59
2023-05-19T03:11:00.136Z,96086.13
2023-05-19T03:13:28.761Z,96090.38
2023-05-19T03:15:57.995Z,96082.22
2023-05-19T03:18:26.371Z,96077.97
2023-05-19T03:20:55.086Z,96075.84
2023-05-19T03:23:23.411Z,96073.72
2023-05-19T03:25:54.249Z,96076.63
2023-05-19T03:28:23.478Z,96075.03
2023-05-19T03:30:51.895Z,96082.66
2023-05-19T03:33:20.409Z,96085.28
2023-05-19T03:35:48.835Z,96081.09
2023-05-19T03:38:16.918Z,96082.16
2023-05-19T03:40:45.203Z,96069.78
2023-05-19T03:43:16.174Z,96086.34
2023-05-19T03:45:44.342Z,96083.22
2023-05-19T03:48:12.629Z,96085.84
2023-05-19T03:50:40.856Z,96089.81
2023-05-19T03:53:08.904Z,96092.25
2023-05-19T03:55:37.583Z,96088.69
2023-05-19T03:58:05.655Z,96094.47
2023-05-19T04:00:35.425Z,96087.66
2023-05-19T04:03:03.763Z,96087.88
2023-05-19T04:05:31.929Z,96084.44
2023-05-19T04:08:00.135Z,96080.97
2023-05-19T04:10:28.346Z,96094.84
2023-05-19T04:12:57.021Z,96098.97
2023-05-19T04:15:25.223Z,96104.47
2023-05-19T04:17:54.763Z,96104.69
2023-05-19T04:20:23.116Z,96093.13
2023-05-19T04:22:51.229Z,96094.69
2023-05-19T04:25:20.173Z,96097.09
2023-05-19T04:27:48.939Z,96093.72
2023-05-19T04:30:22.470Z,96093.50
2023-05-19T04:32:51.212Z,96091.94
2023-05-19T04:35:20.762Z,96100.59
2023-05-19T04:37:48.851Z,96096.84
2023-05-19T04:40:17.482Z,96093.69
2023-05-19T04:42:46.098Z,96090.94
2023-05-19T04:45:15.020Z,96090.88
2023-05-19T04:47:43.325Z,96095.84
2023-05-19T04:50:12.347Z,96099.00
2023-05-19T04:52:41.888Z,96104.47
2023-05-19T04:55:11.472Z,96098.16
2023-05-19T04:57:40.052Z,96109.72
2023-05-19T05:00:13.478Z,96106.81
2023-05-19T05:02:42.967Z,96108.66
2023-05-19T05:05:11.697Z,96106.81
2023-05-19T05:07:41.298Z,96107.59
2023-05-19T05:10:10.992Z,96102.34
2023-05-19T05:12:39.762Z,96107.03
2023-05-19T05:15:09.240Z,96110.97
2023-05-19T05:17:37.850Z,96111.75
2023-05-19T05:20:07.326Z,96111.53
2023-05-19T05:22:36.212Z,96107.09
2023-05-19T05:25:07.284Z,96114.03
2023-05-19T05:27:36.003Z,96110.97
2023-05-19T05:30:04.223Z,96114.66
2023-05-19T05:32:32.536Z,96109.84
2023-05-19T05:35:00.863Z,96110.28
2023-05-19T05:37:29.079Z,96103.34
2023-05-19T05:39:57.149Z,96109.25
2023-05-19T05:42:28.939Z,96107.00
2023-05-19T05:44:57.771Z,96107.09
2023-05-19T05:47:26.602Z,96105.81
2023-05-19T05:49:55.213Z,96107.13
2023-05-19T05:52:27.772Z,96109.56
2023-05-19T05:54:56.496Z,96105.56
2023-05-19T05:57:27.138Z,96100.16
2023-05-19T05:59:55.687Z,96101.91
2023-05-19T06:02:23.955Z,96103.31
2023-05-19T06:04:54.346Z,96100.84
2023-05-19T06:07:22.890Z,96098.28
2023-05-19T06:09:51.003Z,96097.75
2023-05-19T06:12:19.283Z,96102.50
2023-05-19T06:14:48.800Z,96101.00
2023-05-19T06:17:16.939Z,96103.28
2023-05-19T06:19:45.064Z,96100.78
2023-05-19T06:22:13.124Z,96096.72
2023-05-19T06:24:41.199Z,96093.41
2023-05-19T06:27:09.293Z,96097.88
2023-05-19T06:29:37.451Z,96093.53
2023-05-19T06:32:07.133Z,96097.16
2023-05-19T06:34:35.288Z,96099.16
2023-05-19T06:37:03.505Z,96104.69
2023-05-19T06:39:31.617Z,96093.06
2023-05-19T06:41:59.832Z,96096.75
2023-05-19T06:44:27.975Z,96099.19
2023-05-19T06:46:56.133Z,96097.69
2023-05-19T06:49:29.375Z,96103.72
2023-05-19T06:51:57.491Z,96099.13
2023-05-19T06:54:25.581Z,96092.19
2023-05-19T06:56:53.599Z,96095.84
2023-05-19T06:59:23.072Z,96092.75
2023-05-19T07:01:51.217Z,96083.63
2023-05-19T07:04:19.313Z,96085.94
2023-05-19T07:06:50.314Z,96080.75
2023-05-19T07:09:18.481Z,96076.66
2023-05-19T07:11:46.917Z,96083.72
2023-05-19T07:14:15.001Z,96081.06
2023-05-19T07:16:43.167Z,96076.50
2023-05-19T07:19:11.396Z,96081.59
2023-05-19T07:21:39.573Z,96078.66
2023-05-19T07:24:09.504Z,96071.50
2023-05-19T07:26:37.658Z,96075.13
2023-05-19T07:29:05.704Z,96079.19
2023-05-19T07:31:34.214Z,96073.47
2023-05-19T07:34:02.334Z,96072.88
2023-05-19T07:36:30.505Z,96062.66
2023-05-19T07:38:58.700Z,96067.06
2023-05-19T07:41:28.337Z,96061.56
2023-05-19T07:43:56.395Z,96060.38
2023-05-19T07:46:24.523Z,96063.13
2023-05-19T07:48:52.688Z,96061.66
2023-05-19T07:51:21.008Z,96053.13
2023-05-19T07:53:49.148Z,96055.44
2023-05-19T07:56:17.259Z,96044.03
2023-05-19T07:58:46.892Z,96045.56
2023-05-19T08:01:15.079Z,96045.38
2023-05-19T08:03:43.268Z,96038.22
2023-05-19T08:06:11.385Z,96044.03
2023-05-19T08:08:39.588Z,96025.72
2023-05-19T08:11:07.891Z,96030.47
2023-05-19T08:13:35.951Z,96022.19
2023-05-19T08:16:05.589Z,96022.41
2023-05-19T08:18:33.893Z,96018.63
2023-05-19T08:21:02.269Z,96015.28
2023-05-19T08:23:30.468Z,96012.19
2023-05-19T08:25:58.665Z,96014.41
2023-05-19T08:28:26.872Z,96002.19
2023-05-19T08:30:55.134Z,96006.50
2023-05-19T08:33:24.858Z,96000.72
2023-05-19T08:35:53.132Z,95994.69
2023-05-19T08:38:21.408Z,95991.31
2023-05-19T08:40:49.657Z,95989.03
2023-05-19T08:43:17.929Z,95989.72
2023-05-19T08:45:48.364Z,95981.09
2023-05-19T08:48:18.731Z,95982.53
2023-05-19T08:50:56.630Z,95979.59
2023-05-19T08:53:33.101Z,95984.19
2023-05-19T08:56:10.276Z,95980.53
2023-05-19T08:58:41.475Z,95973.97
2023-05-19T09:01:11.002Z,95974.06
2023-05-19T09:03:39.799Z,95971.91
2023-05-19T09:06:09.731Z,95968.25
2023-05-19T09:08:37.873Z,95964.16
2023-05-19T09:11:06.135Z,95961.28
2023-05-19T09:13:34.588Z,95956.84
2023-05-19T09:16:03.824Z,95950.63
2023-05-19T09:18:32.334Z,95941.66
2023-05-19T09:21:02.820Z,95950.34
2023-05-19T09:23:34.064Z,95943.97
2023-05-19T09:26:07.283Z,95928.38
2023-05-19T09:28:37.036Z,95929.34
2023-05-19T09:31:06.688Z,95925.19
2023-05-19T09:33:35.870Z,95923.47
2023-05-19T09:36:06.156Z,95913.78
2023-05-19T09:38:36.998Z,95909.03
2023-05-19T09:41:06.868Z,95903.09
2023-05-19T09:43:36.615Z,95912.66
2023-05-19T09:46:05.959Z,95899.09
2023-05-19T09:48:34.611Z,95899.31
2023-05-19T09:51:03.272Z,95897.72
2023-05-19T09:53:32.632Z,95903.13
2023-05-19T09:56:03.921Z,95901.88
2023-05-19T09:58:34.789Z,95894.81
2023-05-19T10:01:03.415Z,95888.25
2023-05-19T10:03:33.007Z,95892.25
2023-05-19T10:06:02.357Z,95899.56
2023-05-19T10:08:31.965Z,95895.81
2023-05-19T10:11:02.008Z,95892.03
2023-05-19T10:13:31.127Z,95890.69
2023-05-19T10:16:00.630Z,95889.69
2023-05-19T10:18:29.813Z,95888.28
2023-05-19T10:20:59.131Z,95894.25
2023-05-19T10:25:59.177Z,95881.00
2023-05-19T10:28:38.507Z,95878.16
2023-05-19T10:31:09.640Z,95881.25
2023-05-19T10:33:53.515Z,95886.69
2023-05-19T10:36:39.383Z,95879.34
2023-05-19T10:39:13.314Z,95880.41
2023-05-19T10:41:48.200Z,95877.31
2023-05-19T10:44:28.444Z,95873.16
2023-05-19T10:46:57.280Z,95860.78
2023-05-19T10:49:26.071Z,95859.38
2023-05-19T10:51:57.221Z,95858.94
2023-05-19T10:54:43.786Z,95855.38
2023-05-19T10:57:16.448Z,95846.41
2023-05-19T10:59:46.286Z,95850.69
2023-05-19T11:02:40.929Z,95849.41
2023-05-19T11:05:10.805Z,95854.72
2023-05-19T11:07:42.445Z,95837.00
2023-05-19T11:10:11.435Z,95834.19
2023-05-19T11:12:44.079Z,95837.22
2023-05-19T11:15:16.594Z,95824.88
2023-05-19T11:17:49.761Z,95830.00
2023-05-19T11:20:27.787Z,95830.47
2023-05-19T11:23:09.499Z,95817.44
2023-05-19T11:25:48.207Z,95815.63
2023-05-19T11:28:19.537Z,95812.88
2023-05-19T11:30:51.974Z,95810.13
2023-05-19T11:33:21.673Z,95808.06
2023-05-19T11:35:52.357Z,95816.31
2023-05-19T11:38:21.066Z,95810.41
2023-05-19T11:40:50.257Z,95805.22
2023-05-19T11:43:18.451Z,95804.25
2023-05-19T11:45:47.156Z,95799.56
2023-05-19T11:48:17.519Z,95794.97
2023-05-19T11:50:46.906Z,95800.59
2023-05-19T11:53:15.544Z,95798.78
2023-05-19T11:55:46.042Z,95801.28
2023-05-19T11:58:14.421Z,95791.66
2023-05-19T12:00:46.243Z,95797.16
2023-05-19T12:03:14.791Z,95799.31
2023-05-19T12:05:47.357Z,95801.28
2023-05-19T12:08:17.776Z,95791.22
2023-05-19T12:10:49.786Z,95788.66
2023-05-19T12:13:18.309Z,95785.41
2023-05-19T12:15:46.416Z,95790.91
2023-05-19T12:18:14.586Z,95795.81
2023-05-19T12:20:44.426Z,95783.78
2023-05-19T12:23:13.177Z,95783.09
2023-05-19T12:25:41.420Z,95789.97
2023-05-19T12:28:09.470Z,95795.81
2023-05-19T12:30:37.781Z,95783.94
2023-05-19T12:33:06.545Z,95788.91
2023-05-19T12:35:34.803Z,95785.56
2023-05-19T12:38:08.264Z,95791.13
2023-05-19T12:40:37.694Z,95798.50
2023-05-19T12:43:07.016Z,95795.84
2023-05-19T12:45:36.331Z,95789.22
2023-05-19T12:48:06.751Z,95789.38
2023-05-19T12:50:35.490Z,95793.84
2023-05-19T12:53:03.856Z,95793.41
2023-05-19T12:55:39.632Z,95783.44
2023-05-19T12:58:09.083Z,95788.09
2023-05-19T13:00:41.985Z,95785.16
2023-05-19T13:03:16.217Z,95783.53
2023-05-19T13:05:46.569Z,95775.47
2023-05-19T13:08:16.614Z,95773.81
2023-05-19T13:10:49.307Z,95774.25
2023-05-19T13:13:18.182Z,95789.91
2023-05-19T13:15:49.082Z,95786.03
2023-05-19T13:18:17.632Z,95795.16
2023-05-19T13:20:49.230Z,95785.19
2023-05-19T13:23:17.744Z,95787.69
2023-05-19T13:25:47.582Z,95787.06
2023-05-19T13:28:15.953Z,95783.88
2023-05-19T13:30:45.646Z,95771.50
2023-05-19T13:33:13.859Z,95772.09
2023-05-19T13:35:42.098Z,95777.09
2023-05-19T13:38:11.148Z,95775.19
2023-05-19T13:40:39.777Z,95776.06
2023-05-19T13:43:09.926Z,95768.66
2023-05-19T13:45:38.718Z,95780.19
2023-05-19T13:48:08.216Z,95773.06
2023-05-19T13:50:36.653Z,95785.25
2023-05-19T13:53:05.302Z,95770.38
2023-05-19T13:55:33.803Z,95768.84
2023-05-19T13:58:02.038Z,95757.41
2023-05-19T14:00:32.739Z,95745.88
2023-05-19T14:03:01.457Z,95757.06
2023-05-19T14:05:31.295Z,95767.53
2023-05-19T14:08:01.122Z,95761.66
2023-05-19T14:10:29.701Z,95763.28
2023-05-19T14:15:34.621Z,95750.03
2023-05-19T14:18:03.633Z,95765.13
2023-05-19T14:20:33.535Z,95765.66
2023-05-19T14:23:01.775Z,95767.69
2023-05-19T14:25:29.916Z,95768.03
2023-05-19T14:27:58.098Z,95759.06
2023-05-19T14:30:26.191Z,95757.31
2023-05-19T14:32:55.844Z,95751.03
2023-05-19T14:35:24.478Z,95749.25
2023-05-19T14:37:52.764Z,95758.25
2023-05-19T14:40:21.079Z,95740.28
2023-05-19T14:42:49.270Z,95748.72
2023-05-19T14:45:17.509Z,95741.50
2023-05-19T14:47:46.692Z,95744.28
2023-05-19T14:50:17.214Z,95750.97
2023-05-19T14:52:45.325Z,95742.53
2023-05-19T14:55:13.456Z,95736.88
2023-05-19T14:57:41.576Z,95731.22
2023-05-19T15:00:10.540Z,95741.88
2023-05-19T15:02:38.884Z,95729.56
2023-05-19T15:05:07.757Z,95734.00
2023-05-19T15:07:37.496Z,95735.22
2023-05-19T15:10:06.575Z,95742.78
2023-05-19T15:12:34.762Z,95731.94
2023-05-19T15:15:02.948Z,95740.34
2023-05-19T15:17:31.284Z,95724.72
2023-05-19T15:19:59.610Z,95739.22
2023-05-19T15:22:27.922Z,95739.22
2023-05-19T15:24:57.583Z,95729.94
2023-05-19T15:27:25.933Z,95731.19
2023-05-19T15:29:54.073Z,95727.56
2023-05-19T15:32:22.210Z,95728.22
2023-05-19T15:34:50.447Z,95717.69
2023-05-19T15:37:18.545Z,95715.59
2023-05-19T15:39:46.641Z,95715.81
2023-05-19T15:42:16.119Z,95710.94
2023-05-19T15:44:46.018Z,95707.81
2023-05-19T15:47:14.135Z,95714.78
2023-05-19T15:49:42.234Z,95701.63
2023-05-19T15:52:10.531Z,95712.25
2023-05-19T15:54:38.658Z,95710.91
2023-05-19T15:57:07.194Z,95707.38
2023-05-19T15:59:36.769Z,95705.16
2023-05-19T16:02:05.170Z,95706.16
2023-05-19T16:04:33.405Z,95699.84
2023-05-19T16:07:01.470Z,95710.25
2023-05-19T16:09:29.684Z,95706.28
2023-05-19T16:11:57.788Z,95702.63
2023-05-19T16:14:29.338Z,95706.06
2023-05-19T16:17:01.246Z,95702.72
2023-05-19T16:19:29.460Z,95692.31
2023-05-19T16:21:57.649Z,95694.09
2023-05-19T16:24:25.920Z,95698.06
2023-05-19T16:26:54.301Z,95691.44
2023-05-19T16:29:22.419Z,95693.88
2023-05-19T16:31:50.617Z,95693.66
2023-05-19T16:34:20.287Z,95688.25
2023-05-19T16:36:48.346Z,95705.59
2023-05-19T16:39:16.591Z,95711.56
2023-05-19T16:41:44.732Z,95706.81
2023-05-19T16:44:14.719Z,95701.25
2023-05-19T16:46:42.983Z,95698.03
2023-05-19T16:49:11.367Z,95708.75
2023-05-19T16:51:40.891Z,95707.56
2023-05-19T16:54:09.052Z,95708.16
2023-05-19T16:56:37.147Z,95716.84
2023-05-19T16:59:05.320Z,95718.13
2023-05-19T17:01:33.543Z,95718.38
2023-05-19T17:04:01.722Z,95725.47
2023-05-19T17:06:29.964Z,95723.97
2023-05-19T17:08:59.538Z,95726.97
2023-05-19T17:11:28.391Z,95733.53
2023-05-19T17:13:56.551Z,95728.56
2023-05-19T17:16:24.930Z,95735.78
2023-05-19T17:18:53.233Z,95736.59
2023-05-19T17:21:21.684Z,95737.22
2023-05-19T17:23:49.820Z,95752.03
2023-05-19T17:26:19.443Z,95745.69
2023-05-19T17:28:47.568Z,95748.19
2023-05-19T17:31:16.304Z,95759.75
2023-05-19T17:33:44.440Z,95762.28
2023-05-19T17:36:12.522Z,95755.63
2023-05-19T17:38:42.097Z,95752.22
2023-05-19T17:41:11.038Z,95757.16
2023-05-19T17:43:41.820Z,95759.19
2023-05-19T17:46:10.313Z,95743.03
2023-05-19T17:48:39.724Z,95762.94
2023-05-19T17:51:08.110Z,95760.31
2023-05-19T17:53:37.026Z,95766.69
2023-05-19T17:56:07.430Z,95767.16
2023-05-19T17:58:36.228Z,95772.91
2023-05-19T18:01:06.272Z,95778.06
2023-05-19T18:03:35.020Z,95785.69
2023-05-19T18:06:03.831Z,95791.28
2023-05-19T18:08:33.669Z,95795.78
2023-05-19T18:11:01.845Z,95788.00
2023-05-19T18:13:29.964Z,95809.13
2023-05-19T18:15:59.858Z,95802.31
2023-05-19T18:18:29.593Z,95803.53
2023-05-19T18:20:57.712Z,95806.66
2023-05-19T18:23:25.807Z,95807.09
2023-05-19T18:25:53.949Z,95809.72
2023-05-19T18:28:22.112Z,95815.44
2023-05-19T18:30:59.927Z,95807.22
2023-05-19T18:33:31.080Z,95804.06
2023-05-19T18:35:59.990Z,95805.94
2023-05-19T18:38:28.117Z,95805.66
2023-05-19T18:40:56.840Z,95807.69
2023-05-19T18:43:25.085Z,95817.03
2023-05-19T18:45:53.279Z,95820.31
2023-05-19T18:48:22.539Z,95825.16
2023-05-19T18:50:52.065Z,95824.38
2023-05-19T18:53:20.109Z,95825.81
2023-05-19T18:55:48.153Z,95830.78
2023-05-19T18:58:16.314Z,95826.44
2023-05-19T19:00:44.522Z,95830.16
2023-05-19T19:03:12.755Z,95835.13
2023-05-19T19:05:40.940Z,95837.00
2023-05-19T19:08:10.514Z,95842.59
2023-05-19T19:10:40.608Z,95839.78
2023-05-19T19:13:08.848Z,95856.09
2023-05-19T19:15:37.744Z,95850.34
2023-05-19T19:18:07.459Z,95868.06
2023-05-19T19:20:36.390Z,95866.81
2023-05-19T19:23:06.733Z,95862.63
2023-05-19T19:25:36.378Z,95873.19
2023-05-19T19:28:04.612Z,95869.28
2023-05-19T19:30:33.004Z,95873.47
2023-05-19T19:33:01.389Z,95883.94
2023-05-19T19:35:29.567Z,95877.34
2023-05-19T19:37:58.611Z,95882.22
2023-05-19T19:40:26.790Z,95878.75
2023-05-19T19:42:57.046Z,95880.91
2023-05-19T19:45:25.315Z,95884.47
2023-05-19T19:47:53.664Z,95883.69
2023-05-19T19:50:23.620Z,95883.91
2023-05-19T19:52:51.856Z,95891.78
2023-05-19T19:55:19.928Z,95890.75
2023-05-19T19:57:49.569Z,95886.31
2023-05-19T20:00:20.074Z,95887.59
2023-05-19T20:03:03.835Z,95900.72
2023-05-19T20:05:34.225Z,95900.72
2023-05-19T20:08:02.340Z,95908.09
2023-05-19T20:10:30.526Z,95913.75
2023-05-19T20:12:59.667Z,95915.31
2023-05-19T20:15:29.228Z,95902.72
2023-05-19T20:17:57.362Z,95909.69
2023-05-19T20:20:26.070Z,95910.25
2023-05-19T20:22:54.263Z,95908.09
2023-05-19T20:25:22.390Z,95901.16
2023-05-19T20:27:50.502Z,95903.69
2023-05-19T20:30:18.753Z,95909.03
2023-05-19T20:32:48.362Z,95903.53
2023-05-19T20:35:16.642Z,95898.63
2023-05-19T20:37:44.807Z,95907.06
2023-05-19T20:40:13.794Z,95906.97
2023-05-19T20:42:42.233Z,95916.25
2023-05-19T20:45:10.814Z,95919.78
2023-05-19T20:47:39.204Z,95918.53
2023-05-19T20:50:10.009Z,95922.13
2023-05-19T20:52:38.175Z,95923.22
2023-05-19T20:55:06.531Z,95923.50
2023-05-19T20:57:34.962Z,95920.69
2023-05-19T21:00:03.659Z,95918.66
2023-05-19T21:02:31.730Z,95927.94
2023-05-19T21:05:01.245Z,95923.84
2023-05-19T21:07:30.858Z,95921.34
2023-05-19T21:09:59.031Z,95927.22
2023-05-19T21:12:33.748Z,95934.16
2023-05-19T21:15:02.215Z,95941.59
2023-05-19T21:17:30.632Z,95934.25
2023-05-19T21:19:59.824Z,95927.44
2023-05-19T21:22:28.688Z,95925.88
2023-05-19T21:24:58.636Z,95929.00
2023-05-19T21:27:26.800Z,95919.41
2023-05-19T21:29:55.155Z,95921.94
2023-05-19T21:32:23.304Z,95910.19
2023-05-19T21:34:51.408Z,95918.59
2023-05-19T21:37:20.431Z,95916.44
2023-05-19T21:39:48.896Z,95917.19
2023-05-19T21:42:18.540Z,95912.72
2023-05-19T21:44:46.703Z,95905.88
2023-05-19T21:47:18.024Z,95911.44
2023-05-19T21:49:46.219Z,95904.13
2023-05-19T21:52:14.324Z,95920.75
2023-05-19T21:54:42.463Z,95917.03
2023-05-19T21:57:11.267Z,95913.13
2023-05-19T21:59:40.914Z,95915.56
2023-05-19T22:02:09.127Z,95908.06
2023-05-19T22:04:38.616Z,95909.25
2023-05-19T22:07:07.684Z,95915.13
2023-05-19T22:09:36.092Z,95918.09
2023-05-19T22:12:04.185Z,95915.84
2023-05-19T22:14:32.354Z,95918.38
2023-05-19T22:17:01.847Z,95919.88
2023-05-19T22:19:30.105Z,95916.56
2023-05-19T22:22:09.703Z,95918.31
2023-05-19T22:24:41.728Z,95916.19
2023-05-19T22:27:10.081Z,95907.41
2023-05-19T22:29:38.750Z,95908.56
2023-05-19T22:32:12.226Z,95906.03
2023-05-19T22:34:40.671Z,95914.81
2023-05-19T22:37:08.748Z,95908.47
2023-05-19T22:39:37.063Z,95909.75
2023-05-19T22:42:05.482Z,95912.66
2023-05-19T22:44:33.552Z,95911.09
2023-05-19T22:47:01.613Z,95906.44
2023-05-19T22:49:31.116Z,95906.22
2023-05-19T22:51:59.237Z,95909.75
2023-05-19T22:54:27.241Z,95916.97
2023-05-19T22:56:55.914Z,95918.34
2023-05-19T22:59:24.055Z,95917.56
2023-05-19T23:01:52.291Z,95923.59
2023-05-19T23:04:20.354Z,95926.53
2023-05-19T23:06:50.606Z,95924.78
2023-05-19T23:09:18.833Z,95927.50
2023-05-19T23:11:47.247Z,95914.72
2023-05-19T23:14:15.498Z,95906.59
2023-05-19T23:16:43.679Z,95914.00
2023-05-19T23:19:11.954Z,95911.66
2023-05-19T23:21:40.126Z,95910.88
2023-05-19T23:24:09.621Z,95900.34
2023-05-19T23:26:37.655Z,95900.28
2023-05-19T23:29:05.661Z,95891.31
2023-05-19T23:31:34.972Z,95888.66
2023-05-19T23:34:04.551Z,95887.00
2023-05-19T23:36:32.741Z,95885.38
2023-05-19T23:39:01.384Z,95889.28
2023-05-19T23:41:31.559Z,95884.78
2023-05-19T23:43:59.658Z,95874.84
2023-05-19T23:46:27.966Z,95875.41
2023-05-19T23:48:56.117Z,95873.28
2023-05-19T23:51:24.265Z,95876.41
2023-05-19T23:53:52.321Z,95880.28
2023-05-19T23:56:20.447Z,95882.94
2023-05-19T23:58:50.078Z,95876.19
